Time;durP1;ratioP1;P1;durP2;ratioP2;P2;SDS_P1;SDS_P2;PMS_P1;PMS_P2;Temp;Humidity;BMP_temperature;BMP_pressure;BME280_temperature;BME280_humidity;BME280_pressure;Samples;Min_cycle;Max_cycle;Signal;HPM_P1;HPM_P2
2022/12/21 00:01:51;;;;;;;297.13;99.57;;;;;;;7.66;100.00;100958.91;5115942;28;20394;-48
2022/12/21 00:04:17;;;;;;;285.77;98.25;;;;;;;7.66;100.00;100963.19;5117191;28;20027;-48
2022/12/21 00:06:42;;;;;;;296.55;98.97;;;;;;;7.67;100.00;100960.66;5116513;28;20127;-47
2022/12/21 00:09:12;;;;;;;377.38;137.05;;;;;;;7.65;100.00;100959.72;5116398;28;20115;-48
2022/12/21 00:11:37;;;;;;;321.58;102.47;;;;;;;7.62;100.00;100953.56;5116379;28;20398;-49
2022/12/21 00:14:04;;;;;;;319.40;114.75;;;;;;;7.65;100.00;100951.16;5116587;28;20019;-49
2022/12/21 00:16:33;;;;;;;316.60;98.97;;;;;;;7.61;100.00;100960.41;5116044;28;20032;-50
2022/12/21 00:19:00;;;;;;;316.00;101.72;;;;;;;7.62;100.00;100953.56;5116950;28;20032;-48
2022/12/21 00:21:32;;;;;;;327.73;102.20;;;;;;;7.60;100.00;100947.50;5115862;28;20030;-48
2022/12/21 00:23:58;;;;;;;326.15;103.50;;;;;;;7.58;100.00;100945.75;5116780;28;20039;-49
2022/12/21 00:26:26;;;;;;;323.92;106.00;;;;;;;7.54;100.00;100946.44;5116561;28;20031;-48
2022/12/21 00:28:56;;;;;;;327.55;99.93;;;;;;;7.54;100.00;100949.00;5115178;28;20034;-48
2022/12/21 00:31:35;;;;;;;339.80;99.82;;;;;;;7.55;100.00;100966.16;5116474;28;20518;-46
2022/12/21 00:34:02;;;;;;;344.38;103.95;;;;;;;7.52;100.00;100963.44;5116533;28;20020;-49
2022/12/21 00:36:29;;;;;;;339.85;104.50;;;;;;;7.53;100.00;100967.75;5115667;28;20023;-48
2022/12/21 00:38:55;;;;;;;337.73;105.27;;;;;;;7.54;100.00;100963.50;5115933;28;20463;-48
2022/12/21 00:41:22;;;;;;;353.30;111.85;;;;;;;7.55;100.00;100960.13;5116216;28;20016;-48
2022/12/21 00:43:49;;;;;;;381.98;111.53;;;;;;;7.53;100.00;100956.63;5115030;28;20584;-49
2022/12/21 00:46:20;;;;;;;377.17;108.60;;;;;;;7.53;100.00;100957.50;5116328;28;20041;-48
2022/12/21 00:48:46;;;;;;;366.48;108.82;;;;;;;7.56;100.00;100967.00;5115363;28;20307;-48
2022/12/21 00:51:15;;;;;;;370.73;107.32;;;;;;;7.53;100.00;100969.47;5114628;28;20091;-47
2022/12/21 00:53:40;;;;;;;375.63;110.00;;;;;;;7.52;100.00;100976.25;5115706;28;20038;-46
2022/12/21 00:56:08;;;;;;;371.02;108.20;;;;;;;7.51;100.00;100971.94;5115938;28;20110;-48
2022/12/21 00:58:34;;;;;;;377.25;105.35;;;;;;;7.51;100.00;100969.38;5115051;28;20379;-44
2022/12/21 01:01:08;;;;;;;379.33;106.40;;;;;;;7.50;100.00;100977.00;5115996;28;20143;-47
2022/12/21 01:03:34;;;;;;;369.38;105.72;;;;;;;7.49;100.00;100973.56;5114615;28;20047;-47
2022/12/21 01:06:00;;;;;;;366.15;106.88;;;;;;;7.50;100.00;100975.34;5115798;28;20165;-48
2022/12/21 01:08:26;;;;;;;357.45;105.68;;;;;;;7.49;100.00;100981.25;5115513;28;20506;-48
2022/12/21 01:11:02;;;;;;;377.13;108.20;;;;;;;7.50;100.00;100977.91;5114782;28;20519;-48
2022/12/21 01:13:29;;;;;;;375.73;110.40;;;;;;;7.49;100.00;100991.53;5115751;28;20043;-45
2022/12/21 01:15:55;;;;;;;373.23;111.50;;;;;;;7.51;100.00;100987.31;5115385;28;20601;-47
2022/12/21 01:18:21;;;;;;;388.92;110.63;;;;;;;7.49;100.00;100988.97;5114820;28;20224;-48
2022/12/21 01:20:49;;;;;;;407.08;111.88;;;;;;;7.47;100.00;100985.44;5115172;28;20019;-49
2022/12/21 01:23:15;;;;;;;401.45;111.20;;;;;;;7.46;100.00;100981.09;5115615;28;20036;-48
2022/12/21 01:25:45;;;;;;;422.27;110.15;;;;;;;7.44;100.00;100993.00;5114492;28;20019;-48
2022/12/21 01:28:11;;;;;;;419.48;111.63;;;;;;;7.43;100.00;100985.25;5115377;28;20034;-49
2022/12/21 01:30:38;;;;;;;413.92;112.18;;;;;;;7.42;100.00;100989.47;5114963;28;20051;-49
2022/12/21 01:33:04;;;;;;;403.15;115.15;;;;;;;7.43;100.00;100991.25;5114748;28;20024;-49
2022/12/21 01:35:29;;;;;;;434.60;123.00;;;;;;;7.43;100.00;100980.97;5115252;28;20023;-48
2022/12/21 01:37:54;;;;;;;395.52;107.32;;;;;;;7.45;100.00;100984.50;5114739;28;20149;-49
2022/12/21 01:40:20;;;;;;;441.65;110.30;;;;;;;7.40;100.00;100991.13;5114790;28;20024;-48
2022/12/21 01:42:45;;;;;;;399.75;108.88;;;;;;;7.42;100.00;100992.03;5114930;28;20352;-49
2022/12/21 01:45:27;;;;;;;440.30;121.53;;;;;;;7.42;100.00;101004.88;5114894;28;20095;-48
2022/12/21 01:48:05;;;;;;;411.20;111.68;;;;;;;7.43;100.00;101008.34;5114061;28;20028;-48
2022/12/21 01:50:58;;;;;;;415.05;109.28;;;;;;;7.41;100.00;101013.38;5115059;28;20024;-48
2022/12/21 01:53:33;;;;;;;427.63;113.40;;;;;;;7.38;100.00;101008.09;5114213;28;20031;-49
2022/12/21 01:56:02;;;;;;;464.38;118.28;;;;;;;7.34;100.00;101012.22;5115057;28;20032;-49
2022/12/21 01:58:29;;;;;;;458.77;137.02;;;;;;;7.36;100.00;101004.59;5114609;28;20026;-49
2022/12/21 02:00:57;;;;;;;440.17;122.97;;;;;;;7.36;100.00;100999.47;5113434;28;20024;-48
2022/12/21 02:03:27;;;;;;;472.15;147.00;;;;;;;7.36;100.00;101000.34;5114475;28;20043;-48
2022/12/21 02:05:56;;;;;;;493.38;196.38;;;;;;;7.36;100.00;100994.31;5114281;28;20044;-49
2022/12/21 02:08:22;;;;;;;482.08;164.20;;;;;;;7.36;100.00;100984.97;5113733;28;20023;-48
2022/12/21 02:10:47;;;;;;;454.90;122.80;;;;;;;7.35;100.00;100990.03;5114112;28;20016;-47
2022/12/21 02:13:15;;;;;;;421.33;115.53;;;;;;;7.36;100.00;100986.63;5114222;28;20508;-48
2022/12/21 02:15:59;;;;;;;479.52;115.15;;;;;;;7.33;100.00;100986.50;5113778;28;20020;-47
2022/12/21 02:18:25;;;;;;;411.00;118.97;;;;;;;7.33;100.00;100991.63;5114592;28;20061;-49
2022/12/21 02:21:05;;;;;;;444.08;120.15;;;;;;;7.33;100.00;100989.06;5113236;28;20055;-48
2022/12/21 02:24:00;;;;;;;444.33;121.38;;;;;;;7.33;100.00;100989.94;5114148;28;20031;-46
2022/12/21 02:27:03;;;;;;;447.73;129.07;;;;;;;7.36;100.00;100984.06;5114160;28;20220;-48
2022/12/21 02:29:47;;;;;;;409.60;118.80;;;;;;;7.35;100.00;100984.91;5113468;28;20551;-49
2022/12/21 02:32:31;;;;;;;444.55;131.65;;;;;;;7.34;100.00;100975.44;5114327;28;20039;-44
2022/12/21 02:35:26;;;;;;;438.63;118.47;;;;;;;7.35;100.00;100982.34;5113211;28;20534;-49
2022/12/21 02:38:11;;;;;;;433.38;117.63;;;;;;;7.36;100.00;100984.06;5113606;28;20043;-48
2022/12/21 02:40:51;;;;;;;446.10;118.45;;;;;;;7.34;100.00;100983.16;5113749;28;20023;-44
2022/12/21 02:46:30;;;;;;;508.23;120.10;;;;;;;7.27;100.00;100984.56;5113798;28;20513;-47
2022/12/21 02:49:16;;;;;;;467.50;119.68;;;;;;;7.30;100.00;100976.13;5112917;28;20161;-47
2022/12/21 02:51:53;;;;;;;466.05;126.45;;;;;;;7.29;100.00;100976.94;5113354;28;20051;-49
2022/12/21 02:54:19;;;;;;;483.27;127.53;;;;;;;7.29;100.00;100984.63;5113684;28;20451;-48
2022/12/21 02:56:45;;;;;;;476.55;126.05;;;;;;;7.28;100.00;100990.56;5112397;28;20027;-49
2022/12/21 02:59:14;;;;;;;453.98;120.93;;;;;;;7.27;100.00;100978.53;5113594;28;20375;-48
2022/12/21 03:01:54;;;;;;;475.05;124.55;;;;;;;7.27;100.00;100978.53;5113229;28;20052;-48
2022/12/21 03:04:46;;;;;;;500.98;128.88;;;;;;;7.28;100.00;100972.59;5112950;28;20425;-48
2022/12/21 03:07:26;;;;;;;483.50;126.60;;;;;;;7.27;100.00;100966.63;5113501;28;20035;-48
2022/12/21 03:10:10;;;;;;;528.58;128.10;;;;;;;7.24;100.00;100964.78;5113000;28;20146;-48
2022/12/21 03:12:53;;;;;;;494.05;128.77;;;;;;;7.23;100.00;100968.16;5112476;28;20042;-49
2022/12/21 03:15:43;;;;;;;480.25;131.52;;;;;;;7.25;100.00;100968.22;5113505;28;20053;-49
2022/12/21 03:18:36;;;;;;;499.63;133.45;;;;;;;7.24;100.00;100967.34;5112882;28;20110;-49
2022/12/21 03:21:26;;;;;;;537.50;135.30;;;;;;;7.21;100.00;100964.63;5113464;28;20059;-48
2022/12/21 03:24:03;;;;;;;522.75;135.30;;;;;;;7.21;100.00;100962.06;5112769;28;20398;-48
2022/12/21 03:26:38;;;;;;;515.58;140.15;;;;;;;7.21;100.00;100971.47;5113249;28;20487;-48
2022/12/21 03:29:05;;;;;;;498.73;135.65;;;;;;;7.20;100.00;100962.88;5113370;28;20072;-48
2022/12/21 03:31:36;;;;;;;514.97;141.02;;;;;;;7.21;100.00;100961.22;5112446;28;20027;-47
2022/12/21 03:34:08;;;;;;;504.02;137.70;;;;;;;7.22;100.00;100957.84;5113329;28;20024;-49
2022/12/21 03:36:41;;;;;;;503.50;141.13;;;;;;;7.21;100.00;100959.50;5113107;28;20228;-48
2022/12/21 03:39:12;;;;;;;533.50;138.35;;;;;;;7.19;100.00;100950.88;5100854;28;20383;-49
2022/12/21 03:41:46;;;;;;;515.65;141.93;;;;;;;7.20;100.00;100952.63;5092349;28;20384;-48
2022/12/21 03:44:15;;;;;;;515.67;141.48;;;;;;;7.19;100.00;100956.03;5092722;28;20032;-49
2022/12/21 03:46:50;;;;;;;524.90;137.82;;;;;;;7.15;100.00;100964.34;5091797;28;20024;-48
2022/12/21 03:49:53;;;;;;;530.63;141.82;;;;;;;7.15;100.00;100969.47;5092833;28;20035;-47
2022/12/21 03:52:22;;;;;;;498.27;143.88;;;;;;;7.16;100.00;100953.28;5074262;28;20032;-47
2022/12/21 03:55:03;;;;;;;477.63;141.43;;;;;;;7.18;100.00;100961.94;5092303;28;20051;-48
2022/12/21 03:57:28;;;;;;;519.97;142.27;;;;;;;7.15;100.00;100959.22;5092874;28;20243;-48
2022/12/21 03:59:58;;;;;;;513.95;140.88;;;;;;;7.14;100.00;100949.81;5091678;28;20474;-48
2022/12/21 04:02:37;;;;;;;496.92;141.48;;;;;;;7.15;100.00;100948.09;5092300;28;20048;-48
2022/12/21 04:05:26;;;;;;;500.05;143.45;;;;;;;7.16;100.00;100953.28;5092195;28;20440;-48
2022/12/21 04:07:53;;;;;;;481.50;137.88;;;;;;;7.13;100.00;100965.09;5091917;28;20027;-48
2022/12/21 04:10:20;;;;;;;473.88;135.65;;;;;;;7.12;100.00;100958.22;5092686;28;20054;-49
2022/12/21 04:12:46;;;;;;;465.15;138.20;;;;;;;7.11;100.00;100952.22;5092125;28;20101;-47
2022/12/21 04:15:17;;;;;;;472.00;136.07;;;;;;;7.09;100.00;100943.59;5092104;28;20115;-44
2022/12/21 04:17:45;;;;;;;473.45;137.25;;;;;;;7.09;100.00;100953.84;5092364;28;20098;-46
2022/12/21 04:20:14;;;;;;;448.85;136.40;;;;;;;7.08;100.00;100945.25;5091996;28;20421;-48
2022/12/21 04:28:23;;;;;;;418.15;128.95;;;;;;;7.07;100.00;100948.63;5095600;28;20114;-48
2022/12/21 04:30:48;;;;;;;350.77;118.40;;;;;;;7.05;100.00;100949.38;5096012;28;20032;-48
2022/12/21 04:33:17;;;;;;;319.40;108.82;;;;;;;7.01;100.00;100950.03;5095987;28;20020;-48
2022/12/21 04:38:33;;;;;;;288.10;101.35;;;;;;;6.98;100.00;100950.78;5096100;28;20039;-48
2022/12/21 04:40:59;;;;;;;288.45;102.07;;;;;;;6.98;100.00;100950.78;5095723;28;20020;-48
2022/12/21 04:43:25;;;;;;;296.77;106.93;;;;;;;6.95;100.00;100947.22;5095321;28;20111;-49
2022/12/21 04:46:18;;;;;;;286.48;102.38;;;;;;;6.96;100.00;100946.38;5095592;28;20082;-48
2022/12/21 04:48:44;;;;;;;272.13;101.47;;;;;;;6.96;100.00;100948.94;5094570;28;20054;-49
2022/12/21 04:51:16;;;;;;;278.60;100.63;;;;;;;6.93;100.00;100947.13;5095771;28;20027;-48
2022/12/21 04:53:41;;;;;;;281.05;101.00;;;;;;;6.91;100.00;100941.94;5095574;28;20160;-49
2022/12/21 04:56:08;;;;;;;268.50;98.15;;;;;;;6.91;100.00;100943.63;5095000;28;20131;-49
2022/12/21 04:58:33;;;;;;;283.25;100.28;;;;;;;6.88;100.00;100943.47;5095309;28;20016;-48
2022/12/21 05:01:01;;;;;;;265.15;97.53;;;;;;;6.90;100.00;100942.72;5095601;28;20099;-46
2022/12/21 05:03:27;;;;;;;261.17;96.03;;;;;;;6.87;100.00;100942.59;5094585;28;20044;-48
2022/12/21 05:05:52;;;;;;;258.00;95.35;;;;;;;6.85;100.00;100939.09;5095120;28;20024;-48
2022/12/21 05:08:17;;;;;;;255.32;92.63;;;;;;;6.84;100.00;100933.91;5095228;28;20024;-49
2022/12/21 05:10:43;;;;;;;254.27;91.38;;;;;;;6.85;100.00;100933.09;5094698;28;20031;-48
2022/12/21 05:13:08;;;;;;;253.57;93.57;;;;;;;6.84;100.00;100932.22;5095260;28;20113;-48
2022/12/21 05:15:37;;;;;;;255.35;91.35;;;;;;;6.83;100.00;100934.69;5094705;28;20020;-48
2022/12/21 05:18:03;;;;;;;235.48;90.25;;;;;;;6.80;100.00;100939.69;5094646;28;20028;-49
2022/12/21 05:20:28;;;;;;;239.90;91.38;;;;;;;6.77;100.00;100945.56;5095140;28;20065;-49
2022/12/21 05:22:53;;;;;;;241.63;89.20;;;;;;;6.75;100.00;100952.28;5094462;28;20024;-49
2022/12/21 05:25:19;;;;;;;223.07;85.65;;;;;;;6.73;100.00;100948.78;5094765;28;20020;-47
2022/12/21 05:27:44;;;;;;;231.55;87.82;;;;;;;6.70;100.00;100935.81;5094878;28;20020;-48
2022/12/21 05:30:10;;;;;;;229.15;84.07;;;;;;;6.71;100.00;100933.34;5094681;28;20078;-48
2022/12/21 05:32:35;;;;;;;228.93;85.40;;;;;;;6.70;100.00;100938.38;5094153;28;20063;-49
2022/12/21 05:35:00;;;;;;;209.90;82.13;;;;;;;6.68;100.00;100930.63;5094665;28;20054;-49
2022/12/21 05:37:27;;;;;;;210.27;80.22;;;;;;;6.70;100.00;100928.13;5094179;28;20031;-49
2022/12/21 05:39:52;;;;;;;201.20;77.57;;;;;;;6.66;100.00;100921.13;5094090;28;20024;-49
2022/12/21 05:42:18;;;;;;;185.77;74.03;;;;;;;6.63;100.00;100926.09;5094931;28;20107;-48
2022/12/21 05:44:43;;;;;;;189.98;71.65;;;;;;;6.62;100.00;100927.78;5093677;28;20025;-45
2022/12/21 05:47:08;;;;;;;195.27;74.03;;;;;;;6.59;100.00;100936.19;5094662;28;20361;-48
2022/12/21 05:49:34;;;;;;;191.00;73.78;;;;;;;6.57;100.00;100937.81;5094006;28;20038;-48
2022/12/21 05:51:59;;;;;;;186.88;72.32;;;;;;;6.54;100.00;100929.97;5093718;28;20027;-47
2022/12/21 05:54:25;;;;;;;183.60;71.75;;;;;;;6.51;100.00;100924.72;5094782;28;20035;-49
2022/12/21 05:56:50;;;;;;;175.98;69.70;;;;;;;6.49;100.00;100926.31;5094363;28;20476;-43
2022/12/21 05:59:15;;;;;;;171.88;67.93;;;;;;;6.46;100.00;100926.19;5093811;28;20413;-48
2022/12/21 06:01:41;;;;;;;180.57;70.70;;;;;;;6.43;100.00;100920.94;5093918;28;20040;-49
2022/12/21 06:04:06;;;;;;;180.73;71.78;;;;;;;6.41;100.00;100914.84;5094305;28;20028;-46
2022/12/21 06:06:31;;;;;;;173.07;70.07;;;;;;;6.40;100.00;100913.09;5093085;28;20418;-46
2022/12/21 06:08:57;;;;;;;180.70;70.43;;;;;;;6.38;100.00;100909.59;5094277;28;20110;-48
2022/12/21 06:11:24;;;;;;;176.43;67.93;;;;;;;6.35;100.00;100909.44;5094065;28;20028;-50
2022/12/21 06:13:50;;;;;;;181.02;70.75;;;;;;;6.33;100.00;100916.19;5093179;28;20024;-46
2022/12/21 06:16:22;;;;;;;181.48;67.18;;;;;;;6.32;100.00;100910.16;5094224;28;20032;-45
2022/12/21 06:18:48;;;;;;;164.98;66.85;;;;;;;6.33;100.00;100917.03;5093375;28;20039;-50
2022/12/21 06:21:15;;;;;;;164.80;65.15;;;;;;;6.31;100.00;100922.88;5093433;28;20375;-48
2022/12/21 06:23:41;;;;;;;170.93;64.32;;;;;;;6.32;100.00;100924.66;5093714;28;20032;-47
2022/12/21 06:26:10;;;;;;;181.85;63.92;;;;;;;6.30;100.00;100921.13;5093786;28;20039;-48
2022/12/21 06:28:35;;;;;;;162.25;62.88;;;;;;;6.30;100.00;100918.56;5093045;28;20031;-49
2022/12/21 06:31:03;;;;;;;171.38;63.13;;;;;;;6.26;100.00;100910.75;5093697;28;20036;-47
2022/12/21 06:33:28;;;;;;;158.02;60.05;;;;;;;6.27;100.00;100919.28;5093411;28;20031;-48
2022/12/21 06:35:55;;;;;;;152.07;61.05;;;;;;;6.24;100.00;100925.16;5093009;28;20020;-49
2022/12/21 06:38:21;;;;;;;140.20;56.45;;;;;;;6.21;100.00;100921.56;5093591;28;20440;-48
2022/12/21 06:40:58;;;;;;;142.25;56.78;;;;;;;6.18;100.00;100929.97;5093161;28;20107;-44
2022/12/21 06:43:26;;;;;;;126.03;50.67;;;;;;;6.12;100.00;100921.13;5093681;28;20028;-48
2022/12/21 06:45:53;;;;;;;127.88;52.22;;;;;;;6.13;100.00;100918.63;5093253;28;20036;-49
2022/12/21 06:48:18;;;;;;;122.25;50.63;;;;;;;6.12;100.00;100916.00;5092750;28;20114;-47
2022/12/21 06:50:43;;;;;;;150.27;50.75;;;;;;;6.11;100.00;100920.25;5093360;28;20042;-48
2022/12/21 06:53:09;;;;;;;135.60;52.22;;;;;;;6.10;100.00;100921.91;5093501;28;20023;-48
2022/12/21 06:55:34;;;;;;;136.95;51.80;;;;;;;6.11;100.00;100920.25;5092343;28;20379;-47
2022/12/21 06:57:59;;;;;;;127.30;52.15;;;;;;;6.10;100.00;100929.59;5093352;28;20036;-48
2022/12/21 07:00:25;;;;;;;129.95;49.42;;;;;;;6.09;100.00;100937.19;5093114;28;20069;-48
2022/12/21 07:02:50;;;;;;;132.40;50.42;;;;;;;6.09;100.00;100944.88;5092344;28;20059;-47
2022/12/21 07:05:15;;;;;;;125.22;47.92;;;;;;;6.08;100.00;100945.66;5093443;28;20102;-48
2022/12/21 07:07:40;;;;;;;121.75;47.67;;;;;;;6.07;100.00;100938.81;5092524;28;20837;-48
2022/12/21 07:10:06;;;;;;;113.03;45.22;;;;;;;6.04;100.00;100943.75;5092603;28;20028;-48
2022/12/21 07:12:31;;;;;;;115.95;43.42;;;;;;;6.04;100.00;100944.66;5092800;28;20026;-46
2022/12/21 07:14:57;;;;;;;105.38;41.60;;;;;;;6.03;100.00;100936.88;5092805;28;20024;-49
2022/12/21 07:17:22;;;;;;;101.07;40.42;;;;;;;5.98;100.00;100935.75;5092392;28;20524;-47
2022/12/21 07:19:47;;;;;;;114.00;41.85;;;;;;;5.97;100.00;100928.91;5092981;28;20024;-47
2022/12/21 07:22:12;;;;;;;88.22;36.00;;;;;;;5.93;100.00;100932.97;5092673;28;20050;-46
2022/12/21 07:24:38;;;;;;;95.72;37.40;;;;;;;5.92;100.00;100939.75;5092021;28;20502;-49
2022/12/21 07:27:03;;;;;;;83.85;35.75;;;;;;;5.89;100.00;100943.88;5092899;28;20062;-48
2022/12/21 07:29:28;;;;;;;91.60;35.65;;;;;;;5.87;100.00;100946.31;5092386;28;20035;-45
2022/12/21 07:31:53;;;;;;;92.15;35.65;;;;;;;5.84;100.00;100946.19;5091751;28;20067;-46
2022/12/21 07:34:19;;;;;;;91.88;31.30;;;;;;;5.81;100.00;100940.91;5092791;28;20110;-45
2022/12/21 07:36:44;;;;;;;76.65;30.65;;;;;;;5.82;100.00;100958.00;5092063;28;20024;-48
2022/12/21 07:39:09;;;;;;;74.20;29.63;;;;;;;5.81;100.00;100955.38;5092205;28;20031;-48
2022/12/21 07:41:34;;;;;;;78.40;28.85;;;;;;;5.80;100.00;100964.72;5092273;28;20077;-48
2022/12/21 07:44:00;;;;;;;76.72;27.58;;;;;;;5.80;100.00;100968.94;5092249;28;20032;-49
2022/12/21 07:46:25;;;;;;;73.47;27.65;;;;;;;5.80;100.00;100968.94;5091905;28;20030;-49
2022/12/21 07:48:50;;;;;;;67.57;27.88;;;;;;;5.80;100.00;100979.19;5092372;28;20388;-47
2022/12/21 07:51:16;;;;;;;71.25;26.45;;;;;;;5.80;100.00;100987.75;5092392;28;20054;-45
2022/12/21 07:53:42;;;;;;;74.82;27.15;;;;;;;5.80;100.00;100992.88;5091787;28;20043;-48
2022/12/21 07:56:14;;;;;;;74.05;26.95;;;;;;;5.80;100.00;101000.53;5092493;28;20111;-49
2022/12/21 07:58:40;;;;;;;80.30;27.48;;;;;;;5.80;100.00;101005.66;5091736;28;20461;-48
2022/12/21 08:01:11;;;;;;;66.38;25.55;;;;;;;5.82;100.00;100998.91;5096347;28;20489;-49
2022/12/21 08:03:38;;;;;;;67.72;26.65;;;;;;;5.76;100.00;101004.63;5095870;28;20100;-46
2022/12/21 08:06:04;;;;;;;67.88;25.75;;;;;;;5.77;100.00;100997.81;5095918;28;20024;-48
2022/12/21 08:08:30;;;;;;;73.40;30.23;;;;;;;5.75;100.00;101001.97;5096414;28;20021;-47
2022/12/21 08:10:55;;;;;;;77.30;28.33;;;;;;;5.74;100.00;101000.22;5095799;28;20055;-47
2022/12/21 08:13:21;;;;;;;80.38;29.20;;;;;;;5.75;100.00;100991.75;5095826;28;20031;-49
2022/12/21 08:15:46;;;;;;;79.40;29.35;;;;;;;5.75;100.00;100987.50;5096249;28;20107;-48
2022/12/21 08:18:11;;;;;;;86.15;29.88;;;;;;;5.75;100.00;100981.53;5096182;28;20020;-50
2022/12/21 08:20:37;;;;;;;90.55;32.85;;;;;;;5.75;100.00;100989.19;5095492;28;20371;-47
2022/12/21 08:23:02;;;;;;;89.22;34.42;;;;;;;5.78;100.00;100997.00;5096352;28;20046;-48
2022/12/21 08:25:27;;;;;;;130.05;56.25;;;;;;;5.81;100.00;101002.31;5095859;28;20020;-49
2022/12/21 08:27:52;;;;;;;151.73;71.70;;;;;;;5.83;100.00;101000.69;5095293;28;20047;-48
2022/12/21 08:30:18;;;;;;;104.63;40.22;;;;;;;5.83;100.00;101008.34;5095896;28;20463;-46
2022/12/21 08:32:43;;;;;;;94.03;39.50;;;;;;;5.86;100.00;101002.53;5095636;28;20032;-50
2022/12/21 08:35:09;;;;;;;93.80;39.95;;;;;;;5.89;100.00;101000.13;5095620;28;20523;-49
2022/12/21 08:37:34;;;;;;;98.75;39.30;;;;;;;5.91;100.00;100993.41;5095672;28;20499;-49
2022/12/21 08:39:59;;;;;;;113.40;41.88;;;;;;;5.93;100.00;100992.69;5095789;28;20069;-49
2022/12/21 08:42:24;;;;;;;105.80;40.28;;;;;;;5.97;100.00;100987.75;5095196;28;20426;-50
2022/12/21 08:44:50;;;;;;;115.13;41.50;;;;;;;6.00;100.00;100990.47;5095426;28;20218;-50
2022/12/21 08:47:15;;;;;;;118.38;43.28;;;;;;;6.05;100.00;100991.59;5095767;28;20095;-51
2022/12/21 08:49:40;;;;;;;101.72;44.95;;;;;;;6.06;100.00;100989.09;5094949;28;20380;-48
2022/12/21 08:52:06;;;;;;;113.80;44.50;;;;;;;6.09;100.00;100996.94;5095833;28;20352;-49
2022/12/21 08:54:31;;;;;;;116.50;45.35;;;;;;;6.14;100.00;100997.16;5095270;28;20028;-46
2022/12/21 08:56:56;;;;;;;116.82;44.92;;;;;;;6.16;100.00;101000.69;5095011;28;20020;-46
2022/12/21 08:59:22;;;;;;;112.70;45.72;;;;;;;6.19;100.00;100997.41;5095596;28;20031;-48
2022/12/21 09:01:47;;;;;;;127.85;45.28;;;;;;;6.22;100.00;101011.22;5094137;28;20048;-50
2022/12/21 09:04:13;;;;;;;119.15;44.45;;;;;;;6.25;100.00;101018.19;5095531;28;20035;-50
2022/12/21 09:06:38;;;;;;;110.72;44.33;;;;;;;6.27;100.00;101006.31;5095039;28;20133;-49
2022/12/21 09:09:03;;;;;;;120.43;44.45;;;;;;;6.33;100.00;101008.31;5094576;28;20032;-47
2022/12/21 09:11:28;;;;;;;123.28;46.13;;;;;;;6.34;100.00;101003.28;5094094;28;20077;-47
2022/12/21 09:13:54;;;;;;;128.48;49.00;;;;;;;6.38;100.00;101001.75;5094717;28;20039;-49
2022/12/21 09:16:22;;;;;;;140.75;49.70;;;;;;;6.42;100.00;100999.41;5094655;28;20016;-49
2022/12/21 09:18:49;;;;;;;128.68;50.60;;;;;;;6.45;100.00;100993.53;5095006;28;20035;-49
2022/12/21 09:21:16;;;;;;;150.85;53.78;;;;;;;6.50;100.00;100986.09;5094907;28;20130;-50
2022/12/21 09:23:41;;;;;;;147.75;54.50;;;;;;;6.55;100.00;100982.94;5094204;28;20027;-50
2022/12/21 09:26:08;;;;;;;142.20;55.92;;;;;;;6.61;100.00;100986.59;5094953;28;20110;-49
2022/12/21 09:28:34;;;;;;;137.85;55.78;;;;;;;6.62;100.00;100990.94;5094378;28;20619;-50
2022/12/21 09:31:12;;;;;;;138.68;55.70;;;;;;;6.66;100.00;100998.84;5094555;28;20035;-49
2022/12/21 09:33:38;;;;;;;152.23;58.30;;;;;;;6.69;100.00;101005.81;5094415;28;20058;-49
2022/12/21 09:36:04;;;;;;;150.27;58.92;;;;;;;6.69;100.00;101003.22;5094551;28;20028;-50
2022/12/21 09:38:30;;;;;;;142.63;58.30;;;;;;;6.70;100.00;100999.84;5094129;28;20039;-49
2022/12/21 09:41:27;;;;;;;149.25;59.90;;;;;;;6.73;100.00;101003.44;5094612;28;20496;-50
2022/12/21 09:44:13;;;;;;;;;;;;;;;6.80;100.00;101002.03;5093258;28;20089;-49
2022/12/21 09:46:42;;;;;;;146.80;58.13;;;;;;;6.77;100.00;101007.03;5062653;28;19915;-51
2022/12/21 09:49:15;;;;;;;161.82;60.35;;;;;;;6.80;100.00;101014.84;5094069;28;20391;-50
2022/12/21 09:51:48;;;;;;;153.90;57.97;;;;;;;6.85;100.00;101010.81;5093679;28;20463;-51
2022/12/21 09:54:20;;;;;;;150.70;57.15;;;;;;;6.91;100.00;101015.38;5094606;28;20028;-50
2022/12/21 09:56:50;;;;;;;149.80;55.83;;;;;;;6.93;100.00;101024.00;5093911;28;20028;-50
2022/12/21 09:59:19;;;;;;;149.18;55.10;;;;;;;6.98;100.00;101019.97;5093805;28;20468;-50
2022/12/21 10:02:12;;;;;;;143.70;53.40;;;;;;;7.03;100.00;101021.06;5093904;28;20488;-49
2022/12/21 10:04:56;;;;;;;122.38;49.17;;;;;;;7.05;100.00;101016.91;5093974;28;20086;-50
2022/12/21 10:07:50;;;;;;;122.82;50.67;;;;;;;7.10;100.00;101017.09;5094365;28;20052;-49
2022/12/21 10:10:35;;;;;;;134.65;49.25;;;;;;;7.16;100.00;101021.63;5093938;28;20024;-47
2022/12/21 10:13:25;;;;;;;128.05;48.63;;;;;;;7.21;100.00;101012.47;5093697;28;20024;-48
2022/12/21 10:16:04;;;;;;;115.57;45.38;;;;;;;7.20;100.00;101014.13;5093619;28;20039;-49
2022/12/21 10:19:06;;;;;;;125.13;48.20;;;;;;;7.30;100.00;101014.59;5093792;28;20026;-48
2022/12/21 10:21:32;;;;;;;127.13;46.78;;;;;;;7.27;100.00;101020.44;5093356;28;20032;-47
2022/12/21 10:23:57;;;;;;;127.30;45.80;;;;;;;7.28;100.00;101027.31;5093744;28;20031;-49
2022/12/21 10:26:26;;;;;;;104.28;45.15;;;;;;;7.23;100.00;101019.44;5093433;28;20289;-45
2022/12/21 10:29:04;;;;;;;113.93;43.90;;;;;;;7.22;100.00;101027.91;5093394;28;20043;-47
2022/12/21 10:31:40;;;;;;;113.57;43.83;;;;;;;7.20;100.00;101014.13;5093690;28;20106;-46
2022/12/21 10:34:18;;;;;;;109.55;41.83;;;;;;;7.17;100.00;101008.88;5093081;28;20372;-44
2022/12/21 10:36:46;;;;;;;98.30;40.58;;;;;;;7.17;100.00;100998.63;5093392;28;20036;-50
2022/12/21 10:39:16;;;;;;;113.85;43.58;;;;;;;7.19;100.00;101007.28;5093323;28;20016;-50
2022/12/21 10:41:47;;;;;;;106.93;42.67;;;;;;;7.20;100.00;100998.75;5093006;28;20085;-49
2022/12/21 10:44:14;;;;;;;120.47;44.17;;;;;;;7.22;100.00;100997.16;5093747;28;20099;-47
2022/12/21 10:46:39;;;;;;;115.82;46.63;;;;;;;7.24;100.00;100992.09;5092870;28;20438;-50
2022/12/21 10:49:37;;;;;;;99.25;41.50;;;;;;;7.31;100.00;100994.13;5092845;28;20055;-46
2022/12/21 10:52:31;;;;;;;97.82;39.55;;;;;;;7.30;100.00;100983.81;5093087;28;20476;-48
2022/12/21 10:54:57;;;;;;;95.15;40.05;;;;;;;7.27;100.00;100982.00;5092984;28;20028;-46
2022/12/21 10:57:25;;;;;;;102.75;45.25;;;;;;;7.30;100.00;100983.81;5093322;28;20027;-49
2022/12/21 10:59:51;;;;;;;110.88;41.25;;;;;;;7.30;100.00;100973.56;5092720;28;20043;-51
2022/12/21 11:02:40;;;;;;;112.00;47.60;;;;;;;7.32;100.00;100969.38;5092323;28;20493;-50
2022/12/21 11:05:34;;;;;;;111.20;45.40;;;;;;;7.36;100.00;100968.69;5093319;28;20107;-49
2022/12/21 11:08:20;;;;;;;104.25;40.08;;;;;;;7.37;100.00;100975.56;5092926;28;20020;-50
2022/12/21 11:10:52;;;;;;;112.45;49.08;;;;;;;7.35;100.00;100978.06;5093012;28;20107;-50
2022/12/21 11:13:19;;;;;;;106.88;44.90;;;;;;;7.33;100.00;100978.81;5092999;28;20443;-49
2022/12/21 11:16:00;;;;;;;104.03;45.63;;;;;;;7.33;100.00;100973.69;5092365;28;20044;-49
2022/12/21 11:18:43;;;;;;;118.60;45.05;;;;;;;7.32;100.00;100974.50;5093171;28;20032;-50
2022/12/21 11:21:37;;;;;;;109.72;44.50;;;;;;;7.33;100.00;100972.00;5092968;28;20043;-49
2022/12/21 11:24:05;;;;;;;105.07;41.95;;;;;;;7.31;100.00;100975.28;5092622;28;20016;-48
2022/12/21 11:26:35;;;;;;;;;;;;;;;7.39;100.00;100984.22;5093486;28;20024;-45